createdAt,value
2022-12-23T00:02:09.971Z,12.20
2022-12-23T00:04:37.485Z,12.65
2022-12-23T00:07:04.792Z,12.88
2022-12-23T00:09:34.396Z,12.68
2022-12-23T00:12:01.440Z,13.23
2022-12-23T00:14:28.950Z,12.40
2022-12-23T00:16:56.107Z,11.35
2022-12-23T00:19:23.538Z,9.52
2022-12-23T00:21:50.860Z,9.57
2022-12-23T00:24:18.257Z,9.48
2022-12-23T00:26:47.824Z,8.40
2022-12-23T00:29:15.603Z,5.20
2022-12-23T00:31:49.176Z,5.85
2022-12-23T00:34:16.844Z,5.57
2022-12-23T00:36:43.942Z,5.60
2022-12-23T00:39:13.079Z,6.28
2022-12-23T00:41:40.381Z,5.40
2022-12-23T00:44:07.471Z,5.68
2022-12-23T00:46:35.128Z,6.05
2022-12-23T00:49:02.648Z,5.97
2022-12-23T00:51:30.120Z,6.68
2022-12-23T00:53:57.255Z,6.10
2022-12-23T00:56:27.032Z,6.10
2022-12-23T00:58:54.110Z,6.22
2022-12-23T01:01:21.799Z,5.82
2022-12-23T01:03:49.363Z,6.40
2022-12-23T01:06:19.388Z,5.53
2022-12-23T01:08:48.926Z,5.50
2022-12-23T01:11:16.794Z,5.72
2022-12-23T01:13:43.885Z,7.28
2022-12-23T01:16:17.199Z,7.38
2022-12-23T01:21:12.948Z,7.65
2022-12-23T01:23:40.056Z,6.90
2022-12-23T01:26:08.378Z,7.15
2022-12-23T01:28:38.608Z,7.45
2022-12-23T01:31:10.148Z,7.20
2022-12-23T01:33:37.489Z,7.00
2022-12-23T01:36:13.165Z,6.57
2022-12-23T01:38:40.511Z,6.38
2022-12-23T01:41:11.095Z,6.82
2022-12-23T01:43:51.917Z,6.78
2022-12-23T01:46:21.875Z,7.03
2022-12-23T01:48:52.321Z,6.57
2022-12-23T01:51:27.413Z,6.90
2022-12-23T01:54:00.856Z,6.70
2022-12-23T01:56:36.143Z,7.03
2022-12-23T01:59:12.471Z,7.82
2022-12-23T02:01:39.882Z,8.07
2022-12-23T02:04:24.328Z,7.20
2022-12-23T02:06:52.002Z,7.47
2022-12-23T02:09:28.053Z,7.45
2022-12-23T02:12:01.371Z,7.53
2022-12-23T02:14:47.059Z,7.43
2022-12-23T02:17:52.353Z,7.03
2022-12-23T02:20:50.340Z,8.60
2022-12-23T02:23:42.510Z,7.75
2022-12-23T02:26:31.340Z,12.93
2022-12-23T02:29:17.466Z,12.55
2022-12-23T02:31:53.873Z,13.25
2022-12-23T02:34:35.445Z,11.73
2022-12-23T02:37:06.672Z,12.82
2022-12-23T02:39:43.095Z,11.90
2022-12-23T02:42:32.872Z,10.32
2022-12-23T02:45:23.882Z,11.02
2022-12-23T02:48:13.136Z,10.23
2022-12-23T02:50:43.604Z,9.75
2022-12-23T02:53:26.674Z,8.88
2022-12-23T02:55:56.229Z,8.03
2022-12-23T02:58:30.689Z,7.50
2022-12-23T03:03:35.669Z,9.02
2022-12-23T03:06:15.360Z,8.93
2022-12-23T03:08:44.702Z,8.48
2022-12-23T03:11:15.131Z,10.88
2022-12-23T03:14:01.632Z,11.32
2022-12-23T03:17:12.566Z,9.68
2022-12-23T03:20:22.375Z,9.30
2022-12-23T03:23:03.678Z,9.88
2022-12-23T03:25:45.512Z,10.18
2022-12-23T03:28:19.279Z,9.68
2022-12-23T03:30:52.757Z,9.95
2022-12-23T03:35:54.111Z,9.00
2022-12-23T03:38:26.041Z,8.88
2022-12-23T03:41:02.666Z,8.00
2022-12-23T03:43:52.065Z,7.97
2022-12-23T03:46:41.477Z,7.03
2022-12-23T03:49:20.806Z,6.40
2022-12-23T03:52:03.419Z,5.15
2022-12-23T03:54:49.063Z,4.95
2022-12-23T03:57:21.686Z,4.63
2022-12-23T03:59:50.346Z,5.00
2022-12-23T04:02:35.686Z,3.90
2022-12-23T04:05:26.986Z,4.13
2022-12-23T04:08:05.271Z,4.38
2022-12-23T04:10:33.448Z,3.60
2022-12-23T04:13:02.920Z,4.32
2022-12-23T04:15:33.038Z,4.72
2022-12-23T04:18:00.377Z,4.78
2022-12-23T04:20:27.764Z,5.13
2022-12-23T04:22:55.010Z,5.50
2022-12-23T04:25:22.761Z,5.35
2022-12-23T04:27:49.836Z,4.85
2022-12-23T04:30:17.405Z,5.07
2022-12-23T04:32:47.159Z,5.18
2022-12-23T04:35:16.925Z,5.10
2022-12-23T04:37:44.210Z,4.75
2022-12-23T04:40:14.360Z,4.60
2022-12-23T04:42:43.725Z,4.25
2022-12-23T04:45:13.920Z,4.93
2022-12-23T04:47:41.098Z,5.45
2022-12-23T04:50:15.060Z,4.80
2022-12-23T04:52:43.540Z,5.38
2022-12-23T04:55:11.389Z,4.82
2022-12-23T04:57:38.480Z,5.05
2022-12-23T05:00:06.728Z,4.45
2022-12-23T05:02:33.947Z,4.30
2022-12-23T05:05:01.601Z,4.93
2022-12-23T05:07:31.109Z,4.30
2022-12-23T05:09:58.500Z,5.07
2022-12-23T05:12:25.637Z,3.97
2022-12-23T05:14:53.293Z,4.80
2022-12-23T05:17:20.417Z,4.22
2022-12-23T05:19:47.819Z,4.82
2022-12-23T05:22:15.001Z,4.28
2022-12-23T05:24:42.383Z,3.78
2022-12-23T05:27:09.423Z,3.05
2022-12-23T05:29:37.097Z,3.45
2022-12-23T05:32:04.552Z,2.67
2022-12-23T05:34:34.514Z,3.03
2022-12-23T05:37:01.741Z,2.35
2022-12-23T05:39:31.373Z,3.00
2022-12-23T05:41:58.540Z,2.83
2022-12-23T05:44:26.069Z,2.45
2022-12-23T05:46:55.722Z,2.20
2022-12-23T05:49:23.344Z,2.30
2022-12-23T05:51:50.753Z,2.40
2022-12-23T05:54:18.264Z,3.40
2022-12-23T05:56:48.289Z,2.80
2022-12-23T05:59:16.053Z,3.10
2022-12-23T06:01:43.408Z,2.70
2022-12-23T06:04:13.148Z,2.78
2022-12-23T06:06:40.577Z,2.95
2022-12-23T06:09:10.181Z,3.50
2022-12-23T06:11:37.290Z,2.90
2022-12-23T06:14:04.916Z,2.80
2022-12-23T06:16:32.066Z,2.95
2022-12-23T06:18:59.723Z,2.70
2022-12-23T06:21:29.678Z,2.97
2022-12-23T06:23:57.103Z,2.90
2022-12-23T06:26:24.373Z,3.00
2022-12-23T06:28:52.187Z,3.30
2022-12-23T06:31:19.391Z,3.10
2022-12-23T06:33:49.365Z,3.53
2022-12-23T06:36:16.784Z,3.28
2022-12-23T06:38:46.574Z,2.58
2022-12-23T06:41:13.656Z,3.25
2022-12-23T06:43:41.517Z,3.30
2022-12-23T06:46:08.740Z,3.10
2022-12-23T06:48:36.247Z,3.35
2022-12-23T06:51:07.967Z,2.35
2022-12-23T06:53:35.398Z,3.92
2022-12-23T06:56:03.535Z,3.30
2022-12-23T06:58:34.154Z,3.85
2022-12-23T07:01:03.912Z,3.58
2022-12-23T07:03:31.720Z,3.40
2022-12-23T07:06:01.445Z,2.47
2022-12-23T07:08:28.951Z,2.70
2022-12-23T07:11:03.837Z,2.63
2022-12-23T07:13:32.350Z,3.40
2022-12-23T07:16:05.301Z,3.38
2022-12-23T07:18:33.042Z,3.60
2022-12-23T07:21:01.280Z,2.70
2022-12-23T07:23:30.894Z,3.35
2022-12-23T07:26:02.232Z,2.58
2022-12-23T07:28:29.850Z,2.70
2022-12-23T07:30:57.192Z,3.10
2022-12-23T07:33:24.680Z,3.40
2022-12-23T07:35:52.039Z,4.10
2022-12-23T07:38:22.048Z,3.88
2022-12-23T07:40:53.804Z,3.30
2022-12-23T07:43:24.174Z,3.22
2022-12-23T07:45:57.361Z,3.08
2022-12-23T07:48:27.640Z,3.00
2022-12-23T07:51:03.816Z,3.10
2022-12-23T07:53:31.788Z,3.05
2022-12-23T07:56:01.227Z,3.70
2022-12-23T07:58:28.867Z,3.17
2022-12-23T08:01:03.716Z,2.78
2022-12-23T08:03:31.700Z,2.60
2022-12-23T08:06:08.427Z,2.75
2022-12-23T08:08:37.307Z,2.95
2022-12-23T08:11:06.736Z,2.67
2022-12-23T08:13:41.441Z,2.28
2022-12-23T08:16:09.822Z,2.30
2022-12-23T08:18:40.536Z,3.30
2022-12-23T08:21:18.628Z,2.83
2022-12-23T08:23:47.216Z,2.45
2022-12-23T08:26:20.765Z,2.10
2022-12-23T08:28:49.349Z,2.10
2022-12-23T08:31:28.877Z,2.05
2022-12-23T08:33:58.196Z,2.03
2022-12-23T08:36:31.745Z,1.60
2022-12-23T08:39:02.949Z,1.90
2022-12-23T08:41:33.300Z,2.78
2022-12-23T08:44:01.031Z,2.35
2022-12-23T08:46:30.783Z,2.90
2022-12-23T08:48:58.434Z,3.15
2022-12-23T08:51:27.016Z,2.72
2022-12-23T08:54:00.406Z,2.47
2022-12-23T08:56:34.296Z,2.40
2022-12-23T08:59:02.715Z,2.45
2022-12-23T09:01:32.809Z,2.60
2022-12-23T09:04:05.107Z,1.77
2022-12-23T09:06:38.918Z,1.70
2022-12-23T09:09:07.237Z,1.52
2022-12-23T09:11:34.926Z,2.50
2022-12-23T09:14:06.589Z,1.88
2022-12-23T09:16:34.042Z,1.10
2022-12-23T09:19:04.545Z,1.70
2022-12-23T09:21:31.689Z,1.90
2022-12-23T09:24:01.626Z,1.70
2022-12-23T09:26:31.541Z,1.55
2022-12-23T09:28:59.480Z,1.65
2022-12-23T09:31:32.251Z,1.90
2022-12-23T09:34:03.777Z,1.98
2022-12-23T09:36:30.984Z,1.80
2022-12-23T09:38:59.331Z,1.60
2022-12-23T09:41:32.411Z,1.73
2022-12-23T09:44:18.309Z,1.88
2022-12-23T09:46:54.019Z,2.05
2022-12-23T09:49:24.735Z,1.90
2022-12-23T09:51:54.000Z,1.90
2022-12-23T09:54:25.751Z,2.00
2022-12-23T09:57:11.649Z,2.08
2022-12-23T10:00:05.816Z,2.00
2022-12-23T10:03:00.486Z,2.85
2022-12-23T10:05:47.277Z,3.80
2022-12-23T10:08:22.047Z,5.15
2022-12-23T10:10:56.659Z,5.93
2022-12-23T10:13:39.404Z,5.75
2022-12-23T10:16:23.330Z,4.40
2022-12-23T10:18:53.777Z,5.32
2022-12-23T10:21:32.445Z,5.07
2022-12-23T10:24:06.182Z,5.20
2022-12-23T10:26:48.976Z,5.78
2022-12-23T10:29:22.226Z,4.25
2022-12-23T10:31:52.991Z,2.92
2022-12-23T10:34:29.968Z,2.47
2022-12-23T10:37:09.126Z,1.80
2022-12-23T10:40:12.793Z,1.70
2022-12-23T10:42:52.504Z,2.00
2022-12-23T10:45:37.867Z,1.92
2022-12-23T10:48:29.093Z,2.55
2022-12-23T10:51:03.763Z,2.10
2022-12-23T10:53:47.075Z,2.60
2022-12-23T10:56:18.697Z,3.35
2022-12-23T10:58:52.989Z,2.30
2022-12-23T11:01:26.735Z,2.30
2022-12-23T11:04:01.128Z,1.70
2022-12-23T11:06:35.007Z,1.80
2022-12-23T11:09:07.001Z,2.03
2022-12-23T11:11:53.616Z,4.22
2022-12-23T11:14:37.501Z,4.10
2022-12-23T11:17:06.869Z,6.47
2022-12-23T11:19:36.543Z,5.88
2022-12-23T11:22:03.694Z,4.90
2022-12-23T11:24:31.638Z,4.88
2022-12-23T11:27:11.521Z,4.50
2022-12-23T11:29:46.913Z,3.83
2022-12-23T11:32:35.484Z,4.78
2022-12-23T11:35:03.277Z,5.10
2022-12-23T11:37:37.368Z,5.03
2022-12-23T11:40:11.830Z,3.03
2022-12-23T11:42:41.678Z,2.33
2022-12-23T11:45:09.529Z,2.35
2022-12-23T11:47:41.672Z,1.52
2022-12-23T11:50:33.745Z,2.43
2022-12-23T11:53:08.949Z,2.20
2022-12-23T11:55:39.656Z,2.20
2022-12-23T11:58:18.512Z,2.05
2022-12-23T12:00:55.886Z,2.83
2022-12-23T12:03:28.813Z,2.40
2022-12-23T12:06:00.810Z,2.47
2022-12-23T12:08:41.239Z,3.38
2022-12-23T12:11:17.076Z,2.50
2022-12-23T12:13:57.408Z,2.60
2022-12-23T12:16:31.074Z,2.10
2022-12-23T12:21:35.199Z,2.35
2022-12-23T12:24:19.212Z,2.80
2022-12-23T12:26:57.051Z,2.28
2022-12-23T12:29:24.291Z,2.50
2022-12-23T12:31:55.106Z,2.72
2022-12-23T12:34:34.429Z,3.50
2022-12-23T12:37:26.161Z,2.97
2022-12-23T12:40:15.054Z,2.70
2022-12-23T12:42:51.772Z,2.70
2022-12-23T12:45:21.792Z,2.90
2022-12-23T12:48:20.463Z,4.60
2022-12-23T12:51:05.461Z,2.75
2022-12-23T12:53:35.496Z,3.08
2022-12-23T12:56:35.331Z,3.10
2022-12-23T12:59:04.012Z,4.15
2022-12-23T13:01:49.831Z,5.13
2022-12-23T13:04:40.375Z,4.35
2022-12-23T13:07:13.460Z,3.50
2022-12-23T13:12:14.872Z,3.55
2022-12-23T13:14:58.142Z,3.55
2022-12-23T13:17:28.675Z,3.50
2022-12-23T13:20:11.045Z,3.53
2022-12-23T13:22:38.780Z,3.92
2022-12-23T13:25:21.035Z,3.30
2022-12-23T13:27:58.061Z,3.42
2022-12-23T13:30:57.340Z,3.55
2022-12-23T13:33:53.753Z,3.55
2022-12-23T13:36:52.075Z,3.13
2022-12-23T13:39:47.510Z,3.15
2022-12-23T13:42:32.521Z,5.30
2022-12-23T13:45:01.065Z,7.78
2022-12-23T13:47:48.885Z,9.23
2022-12-23T13:50:34.529Z,6.25
2022-12-23T13:53:13.848Z,5.55
2022-12-23T13:56:03.010Z,4.57
2022-12-23T13:58:33.890Z,4.80
2022-12-23T14:01:09.634Z,5.78
2022-12-23T14:03:39.201Z,6.10
2022-12-23T14:06:26.541Z,6.50
2022-12-23T14:08:55.791Z,5.68
2022-12-23T14:11:28.463Z,6.13
2022-12-23T14:14:01.340Z,5.85
2022-12-23T14:16:56.217Z,6.43
2022-12-23T14:19:57.668Z,4.22
2022-12-23T14:22:36.979Z,3.03
2022-12-23T14:25:25.719Z,3.15
2022-12-23T14:28:13.782Z,3.20
2022-12-23T14:30:42.954Z,3.70
2022-12-23T14:33:19.066Z,3.10
2022-12-23T14:35:46.718Z,3.30
2022-12-23T14:38:16.710Z,3.20
2022-12-23T14:40:47.395Z,3.40
2022-12-23T14:43:23.710Z,3.13
2022-12-23T14:46:02.838Z,2.75
2022-12-23T14:48:36.905Z,3.05
2022-12-23T14:51:29.165Z,3.58
2022-12-23T14:53:59.165Z,3.90
2022-12-23T14:56:41.627Z,3.33
2022-12-23T14:59:30.410Z,3.38
2022-12-23T15:02:02.200Z,3.10
2022-12-23T15:04:46.533Z,3.13
2022-12-23T15:07:35.609Z,3.33
2022-12-23T15:10:07.047Z,3.80
2022-12-23T15:12:42.512Z,8.15
2022-12-23T15:15:22.292Z,4.68
2022-12-23T15:18:02.025Z,4.72
2022-12-23T15:20:35.963Z,3.70
2022-12-23T15:23:10.914Z,9.80
2022-12-23T15:25:53.959Z,5.90
2022-12-23T15:28:41.969Z,6.70
2022-12-23T15:31:45.577Z,6.45
2022-12-23T15:34:23.036Z,5.50
2022-12-23T15:36:52.923Z,6.82
2022-12-23T15:39:27.746Z,17.25
2022-12-23T15:41:58.062Z,9.23
2022-12-23T15:44:38.188Z,8.52
2022-12-23T15:47:25.038Z,8.05
2022-12-23T15:49:55.177Z,7.97
2022-12-23T15:52:23.219Z,7.28
2022-12-23T15:54:59.943Z,7.90
2022-12-23T15:57:31.199Z,8.15
2022-12-23T15:59:59.514Z,10.20
2022-12-23T16:05:32.560Z,13.30
2022-12-23T16:08:30.554Z,15.30
2022-12-23T16:11:20.888Z,13.32
2022-12-23T16:13:59.867Z,11.27
2022-12-23T16:16:30.885Z,10.20
2022-12-23T16:18:58.131Z,8.98
2022-12-23T16:21:30.407Z,8.38
2022-12-23T16:24:07.079Z,9.10
2022-12-23T16:26:43.557Z,9.50
2022-12-23T16:29:11.616Z,9.88
2022-12-23T16:31:42.867Z,10.80
2022-12-23T16:34:15.610Z,11.30
2022-12-23T16:36:43.048Z,11.50
2022-12-23T16:39:21.829Z,9.60
2022-12-23T16:41:50.131Z,10.38
2022-12-23T16:44:19.786Z,9.27
2022-12-23T16:46:51.321Z,10.73
2022-12-23T16:49:26.575Z,12.07
2022-12-23T16:51:57.364Z,9.73
2022-12-23T16:54:25.126Z,11.38
2022-12-23T16:56:52.459Z,13.95
2022-12-23T16:59:19.713Z,14.02
2022-12-23T17:01:49.003Z,12.25
2022-12-23T17:04:16.272Z,10.15
2022-12-23T17:06:45.493Z,9.68
2022-12-23T17:09:12.759Z,8.88
2022-12-23T17:11:47.742Z,7.90
2022-12-23T17:14:23.438Z,6.78
2022-12-23T17:16:51.935Z,6.50
2022-12-23T17:19:27.342Z,6.75
2022-12-23T17:21:59.919Z,7.38
2022-12-23T17:24:27.572Z,6.72
2022-12-23T17:26:55.870Z,6.57
2022-12-23T17:29:23.679Z,6.93
2022-12-23T17:31:51.831Z,8.50
2022-12-23T17:34:21.609Z,7.82
2022-12-23T17:36:50.799Z,8.23
2022-12-23T17:39:19.602Z,8.13
2022-12-23T17:41:49.606Z,9.43
2022-12-23T17:44:18.216Z,9.75
2022-12-23T17:46:46.754Z,11.00
2022-12-23T17:49:14.005Z,14.80
2022-12-23T17:51:42.577Z,15.45
2022-12-23T17:54:23.798Z,14.18
2022-12-23T17:56:53.817Z,13.88
2022-12-23T17:59:21.887Z,11.13
2022-12-23T18:01:49.606Z,9.93
2022-12-23T18:04:19.025Z,10.55
2022-12-23T18:06:48.971Z,10.82
2022-12-23T18:09:16.185Z,10.63
2022-12-23T18:11:45.582Z,11.18
2022-12-23T18:14:25.586Z,13.15
2022-12-23T18:16:55.567Z,13.15
2022-12-23T18:19:23.067Z,13.57
2022-12-23T18:21:51.299Z,13.30
2022-12-23T18:24:18.584Z,14.90
2022-12-23T18:26:46.573Z,13.18
2022-12-23T18:29:13.878Z,12.30
2022-12-23T18:31:52.114Z,12.20
2022-12-23T18:34:23.436Z,10.88
2022-12-23T18:36:50.939Z,12.32
2022-12-23T18:39:18.235Z,12.98
2022-12-23T18:41:48.563Z,15.70
2022-12-23T18:44:19.343Z,14.10
2022-12-23T18:46:53.621Z,15.00
2022-12-23T18:49:21.376Z,10.63
2022-12-23T18:51:51.141Z,11.60
2022-12-23T18:54:21.008Z,11.80
2022-12-23T18:56:48.515Z,12.13
2022-12-23T18:59:19.274Z,11.20
2022-12-23T19:01:50.293Z,11.90
2022-12-23T19:04:17.439Z,12.05
2022-12-23T19:06:45.310Z,12.48
2022-12-23T19:09:17.458Z,12.93
2022-12-23T19:11:50.347Z,13.20
2022-12-23T19:14:19.277Z,12.18
2022-12-23T19:16:51.949Z,12.20
2022-12-23T19:19:20.763Z,11.80
2022-12-23T19:21:51.096Z,11.65
2022-12-23T19:24:23.131Z,13.40
2022-12-23T19:26:50.805Z,13.38
2022-12-23T19:29:23.842Z,13.77
2022-12-23T19:31:54.205Z,14.30
2022-12-23T19:34:21.526Z,15.20
2022-12-23T19:36:50.907Z,14.48
2022-12-23T19:39:18.165Z,15.38
2022-12-23T19:41:53.842Z,13.70
2022-12-23T19:44:20.914Z,13.18
2022-12-23T19:46:51.238Z,13.15
2022-12-23T19:49:20.358Z,12.13
2022-12-23T19:51:50.609Z,12.80
2022-12-23T19:57:04.649Z,13.23
2022-12-23T19:59:32.069Z,14.20
2022-12-23T20:01:59.563Z,13.43
2022-12-23T20:04:26.671Z,11.52
2022-12-23T20:07:02.082Z,13.45
2022-12-23T20:09:29.245Z,13.52
2022-12-23T20:11:58.105Z,12.95
2022-12-23T20:14:27.808Z,13.15
2022-12-23T20:16:59.557Z,11.70
2022-12-23T20:19:26.788Z,11.85
2022-12-23T20:21:54.716Z,12.05
2022-12-23T20:24:21.977Z,11.55
2022-12-23T20:26:54.244Z,11.32
2022-12-23T20:29:23.728Z,11.40
2022-12-23T20:32:05.185Z,10.95
2022-12-23T20:34:39.498Z,9.80
2022-12-23T20:37:12.788Z,8.57
2022-12-23T20:39:45.193Z,8.63
2022-12-23T20:42:13.764Z,8.80
2022-12-23T20:44:40.923Z,7.45
2022-12-23T20:47:10.839Z,8.45
2022-12-23T20:49:40.337Z,8.07
2022-12-23T20:52:12.973Z,8.20
2022-12-23T20:54:42.733Z,7.40
2022-12-23T20:57:10.145Z,7.55
2022-12-23T20:59:37.413Z,8.05
2022-12-23T21:02:05.007Z,8.25
2022-12-23T21:04:35.162Z,8.15
2022-12-23T21:07:02.635Z,9.23
2022-12-23T21:09:30.074Z,7.25
2022-12-23T21:11:57.758Z,8.68
2022-12-23T21:14:27.818Z,8.32
2022-12-23T21:16:55.438Z,8.63
2022-12-23T21:19:26.555Z,8.73
2022-12-23T21:24:37.851Z,9.20
2022-12-23T21:27:06.736Z,9.15
2022-12-23T21:29:33.884Z,8.60
2022-12-23T21:32:01.529Z,10.35
2022-12-23T21:34:31.501Z,10.25
2022-12-23T21:36:58.988Z,10.25
2022-12-23T21:39:27.459Z,9.52
2022-12-23T21:41:57.735Z,8.77
2022-12-23T21:44:25.009Z,8.70
2022-12-23T21:46:52.745Z,8.60
2022-12-23T21:49:20.569Z,10.00
2022-12-23T21:51:53.114Z,8.57
2022-12-23T21:54:20.548Z,8.98
2022-12-23T21:56:53.644Z,8.75
2022-12-23T21:59:21.827Z,6.82
2022-12-23T22:01:51.614Z,5.80
2022-12-23T22:04:19.051Z,6.43
2022-12-23T22:06:49.115Z,5.75
2022-12-23T22:09:20.007Z,5.35
2022-12-23T22:11:50.008Z,5.05
2022-12-23T22:14:19.021Z,5.22
2022-12-23T22:16:49.025Z,5.03
2022-12-23T22:19:18.541Z,4.95
2022-12-23T22:21:46.024Z,5.03
2022-12-23T22:24:13.428Z,4.78
2022-12-23T22:26:43.300Z,4.75
2022-12-23T22:29:11.059Z,5.35
2022-12-23T22:31:45.513Z,4.47
2022-12-23T22:34:21.520Z,4.50
2022-12-23T22:36:50.048Z,4.30
2022-12-23T22:39:21.881Z,5.68
2022-12-23T22:41:51.203Z,5.00
2022-12-23T22:44:21.899Z,4.88
2022-12-23T22:46:49.863Z,5.72
2022-12-23T22:49:19.491Z,5.65
2022-12-23T22:51:49.311Z,5.75
2022-12-23T22:54:16.427Z,5.63
2022-12-23T22:56:44.594Z,5.90
2022-12-23T22:59:23.943Z,6.32
2022-12-23T23:01:54.399Z,5.97
2022-12-23T23:04:21.829Z,5.50
2022-12-23T23:06:49.400Z,6.28
2022-12-23T23:09:18.716Z,5.03
2022-12-23T23:11:46.695Z,5.15
2022-12-23T23:14:14.186Z,4.63
2022-12-23T23:16:42.059Z,3.92
2022-12-23T23:19:10.751Z,4.18
2022-12-23T23:21:38.300Z,3.97
2022-12-23T23:24:12.213Z,4.60
2022-12-23T23:26:39.873Z,3.80
2022-12-23T23:29:07.036Z,3.60
2022-12-23T23:31:44.704Z,3.55
2022-12-23T23:34:13.287Z,3.83
2022-12-23T23:36:41.514Z,4.63
2022-12-23T23:39:11.525Z,3.58
2022-12-23T23:41:39.349Z,3.63
2022-12-23T23:44:06.573Z,3.70
2022-12-23T23:46:38.012Z,4.28
2022-12-23T23:49:05.758Z,3.33
2022-12-23T23:51:35.575Z,3.40
2022-12-23T23:54:02.627Z,4.20
2022-12-23T23:56:37.506Z,4.07
2022-12-23T23:59:06.527Z,5.50
